Time;durP1;ratioP1;P1;durP2;ratioP2;P2;SDS_P1;SDS_P2;PMS_P1;PMS_P2;Temp;Humidity;BMP_temperature;BMP_pressure;BME280_temperature;BME280_humidity;BME280_pressure;Samples;Min_cycle;Max_cycle;Signal;HPM_P1;HPM_P2
2022/03/12 00:00:54;;;;;;;9.70;6.25;;;7.10;74.70;;;;;;5014132;28;20064;-73
2022/03/12 00:03:20;;;;;;;8.70;5.55;;;7.10;75.00;;;;;;5005784;28;20073;-73
2022/03/12 00:05:55;;;;;;;9.20;5.80;;;7.10;75.40;;;;;;4988590;28;20545;-73
2022/03/12 00:08:23;;;;;;;9.82;5.60;;;7.00;75.00;;;;;;4997426;28;20052;-73
2022/03/12 00:10:52;;;;;;;10.23;5.43;;;7.20;73.90;;;;;;5017627;28;20044;-73
2022/03/12 00:13:21;;;;;;;11.45;5.80;;;7.10;74.90;;;;;;5016346;28;20111;-73
2022/03/12 00:15:50;;;;;;;8.57;4.95;;;7.10;75.30;;;;;;5010983;28;20077;-74
2022/03/12 00:18:19;;;;;;;10.90;5.90;;;7.10;75.30;;;;;;5009494;28;20076;-74
2022/03/12 00:20:48;;;;;;;9.82;5.78;;;7.10;74.90;;;;;;4995574;28;20042;-73
2022/03/12 00:23:25;;;;;;;11.70;5.65;;;7.10;75.90;;;;;;5023326;28;20053;-74
2022/03/12 00:25:52;;;;;;;10.35;6.20;;;7.10;75.90;;;;;;5012846;28;20041;-73
2022/03/12 00:28:19;;;;;;;8.30;5.38;;;7.00;75.70;;;;;;5013295;28;20045;-73
2022/03/12 00:30:51;;;;;;;8.50;5.53;;;7.00;76.40;;;;;;4991883;28;20435;-73
2022/03/12 00:33:18;;;;;;;8.48;5.63;;;7.00;76.10;;;;;;5013349;28;20037;-73
2022/03/12 00:35:47;;;;;;;10.45;6.00;;;7.40;77.10;;;;;;5009252;28;20033;-73
2022/03/12 00:38:14;;;;;;;12.02;6.20;;;7.00;77.20;;;;;;5003625;28;20402;-73
2022/03/12 00:40:40;;;;;;;11.90;5.88;;;6.90;77.30;;;;;;5015015;28;20037;-73
2022/03/12 00:43:06;;;;;;;11.15;5.72;;;6.80;77.50;;;;;;5012702;28;20041;-74
2022/03/12 00:45:31;;;;;;;7.30;5.00;;;6.90;77.70;;;;;;5015302;28;20118;-74
2022/03/12 00:47:57;;;;;;;10.38;6.10;;;6.80;78.00;;;;;;4999295;28;20034;-73
2022/03/12 00:50:23;;;;;;;10.17;5.73;;;6.80;77.70;;;;;;5012208;28;20485;-74
2022/03/12 00:52:48;;;;;;;10.33;5.90;;;6.80;78.00;;;;;;5014751;28;20400;-74
2022/03/12 00:55:14;;;;;;;9.57;5.47;;;6.80;77.70;;;;;;5013298;28;20140;-73
2022/03/12 00:57:40;;;;;;;10.20;5.73;;;6.70;78.30;;;;;;5013344;28;20117;-74
2022/03/12 01:00:16;;;;;;;8.00;5.40;;;6.70;78.50;;;;;;4996025;28;20053;-74
2022/03/12 01:02:42;;;;;;;9.52;5.65;;;6.70;78.50;;;;;;5010239;28;20037;-74
2022/03/12 01:05:09;;;;;;;10.77;5.57;;;6.70;78.70;;;;;;5010645;28;20056;-74
2022/03/12 01:07:34;;;;;;;;;;;6.70;78.50;;;;;;5011113;28;20085;-74
2022/03/12 01:10:00;;;;;;;9.85;5.82;;;6.70;79.10;;;;;;5008292;28;19967;-74
2022/03/12 01:12:27;;;;;;;10.10;5.75;;;6.80;78.70;;;;;;5012285;28;20085;-74
2022/03/12 01:14:53;;;;;;;10.70;6.00;;;6.70;78.80;;;;;;5020805;28;20212;-74
2022/03/12 01:17:19;;;;;;;8.97;6.00;;;6.70;79.30;;;;;;5012786;28;20501;-74
2022/03/12 01:19:45;;;;;;;9.35;5.53;;;6.70;79.70;;;;;;5011421;28;20421;-74
2022/03/12 01:22:20;;;;;;;10.40;5.68;;;6.60;80.10;;;;;;5009195;28;20049;-74
2022/03/12 01:24:49;;;;;;;10.43;5.75;;;6.60;80.60;;;;;;5012897;28;20389;-73
2022/03/12 01:27:16;;;;;;;11.45;6.20;;;6.60;80.40;;;;;;5010910;28;20072;-74
2022/03/12 01:29:42;;;;;;;;;;;6.50;80.40;;;;;;5012866;28;20038;-74
2022/03/12 01:32:09;;;;;;;9.25;6.15;;;6.50;80.40;;;;;;5008061;28;20290;-73
2022/03/12 01:34:35;;;;;;;10.18;5.75;;;7.00;81.10;;;;;;5012143;28;20052;-73
2022/03/12 01:37:01;;;;;;;11.93;6.05;;;6.50;81.10;;;;;;5002429;28;20030;-74
2022/03/12 01:39:28;;;;;;;11.27;6.05;;;6.40;82.10;;;;;;5000483;28;20034;-74
2022/03/12 01:41:54;;;;;;;9.07;5.85;;;6.50;81.80;;;;;;5010242;28;20040;-73
2022/03/12 01:44:21;;;;;;;10.88;5.65;;;6.40;81.50;;;;;;5013216;28;20041;-74
2022/03/12 01:46:48;;;;;;;9.38;6.15;;;6.40;82.90;;;;;;5008386;28;20121;-73
2022/03/12 01:49:20;;;;;;;11.98;6.07;;;6.30;83.30;;;;;;4991559;28;20038;-73
2022/03/12 01:51:50;;;;;;;11.75;5.45;;;6.30;83.10;;;;;;4996631;28;20396;-73
2022/03/12 01:54:23;;;;;;;10.70;5.88;;;6.30;83.40;;;;;;5005263;28;20081;-73
2022/03/12 01:56:50;;;;;;;9.13;5.75;;;6.30;84.10;;;;;;5006170;28;20397;-73
2022/03/12 01:59:16;;;;;;;13.52;5.93;;;6.40;84.00;;;;;;5012108;28;20049;-74
2022/03/12 02:01:42;;;;;;;10.30;6.03;;;6.30;84.20;;;;;;5004456;28;20401;-74
2022/03/12 02:04:08;;;;;;;;;;;6.20;84.10;;;;;;5028280;28;20112;-74
2022/03/12 02:06:38;;;;;;;9.50;6.28;;;6.20;85.00;;;;;;5009352;28;20000;-74
2022/03/12 02:09:03;;;;;;;10.70;6.50;;;6.20;85.00;;;;;;5008271;28;20045;-73
2022/03/12 02:11:31;;;;;;;9.73;5.63;;;6.20;86.30;;;;;;4998152;28;20145;-73
2022/03/12 02:14:01;;;;;;;8.88;5.80;;;6.30;84.90;;;;;;5013778;28;20059;-73
2022/03/12 02:16:29;;;;;;;11.85;6.45;;;6.30;85.50;;;;;;5011339;28;20397;-74
2022/03/12 02:18:55;;;;;;;12.70;6.32;;;6.30;86.00;;;;;;5001085;28;20168;-73
2022/03/12 02:21:51;;;;;;;10.20;6.00;;;6.50;85.60;;;;;;5012628;28;20041;-73
2022/03/12 02:24:19;;;;;;;10.65;6.20;;;6.20;85.90;;;;;;5007789;28;20063;-74
2022/03/12 02:26:45;;;;;;;9.70;6.40;;;6.20;85.90;;;;;;5013070;28;20050;-74
2022/03/12 02:29:16;;;;;;;13.52;6.70;;;6.20;86.00;;;;;;4999469;28;20119;-74
2022/03/12 02:31:45;;;;;;;8.48;6.20;;;6.20;86.10;;;;;;5014955;28;20462;-74
2022/03/12 02:34:12;;;;;;;9.18;6.40;;;6.20;86.40;;;;;;5009996;28;20052;-74
2022/03/12 02:36:38;;;;;;;;;;;6.20;86.60;;;;;;5000030;28;20092;-74
2022/03/12 02:39:05;;;;;;;10.13;6.63;;;6.20;86.90;;;;;;5017280;28;20300;-73
2022/03/12 02:41:31;;;;;;;12.32;6.47;;;6.20;86.80;;;;;;5004012;28;20351;-74
2022/03/12 02:43:58;;;;;;;10.07;6.07;;;6.20;86.80;;;;;;5008403;28;20045;-73
2022/03/12 02:46:27;;;;;;;10.38;6.40;;;6.60;87.10;;;;;;5013697;28;20038;-73
2022/03/12 02:48:53;;;;;;;9.95;5.80;;;6.20;88.20;;;;;;4997286;28;20049;-74
2022/03/12 02:51:25;;;;;;;10.93;6.63;;;6.10;87.50;;;;;;4980609;28;20056;-74
2022/03/12 02:53:52;;;;;;;13.35;6.50;;;6.20;87.00;;;;;;5010082;28;20116;-74
2022/03/12 02:56:19;;;;;;;8.98;5.88;;;6.20;86.10;;;;;;5000842;28;20482;-74
2022/03/12 02:58:45;;;;;;;;;;;6.20;86.50;;;;;;4996274;28;20050;-73
2022/03/12 03:01:14;;;;;;;10.60;6.20;;;6.20;85.90;;;;;;4997837;28;19917;-74
2022/03/12 03:03:44;;;;;;;10.52;6.35;;;6.20;85.80;;;;;;5015440;28;20493;-74
2022/03/12 03:06:13;;;;;;;13.98;6.25;;;6.30;85.80;;;;;;5014238;28;20124;-73
2022/03/12 03:08:39;;;;;;;11.43;6.28;;;6.30;86.00;;;;;;5012714;28;20041;-74
2022/03/12 03:11:09;;;;;;;;;;;6.20;85.80;;;;;;4999776;28;20048;-74
2022/03/12 03:13:37;;;;;;;10.43;5.93;;;6.20;85.70;;;;;;5007479;28;19925;-73
2022/03/12 03:16:24;;;;;;;13.90;6.28;;;6.30;84.50;;;;;;5012284;28;20045;-73
2022/03/12 03:18:53;;;;;;;10.77;5.80;;;6.30;85.00;;;;;;5011040;28;20156;-73
2022/03/12 03:21:26;;;;;;;9.05;5.80;;;6.30;84.70;;;;;;5001412;28;20288;-73
2022/03/12 03:23:53;;;;;;;10.05;6.35;;;6.30;84.10;;;;;;5012224;28;20044;-73
2022/03/12 03:26:50;;;;;;;9.52;5.47;;;6.30;84.30;;;;;;4994280;28;20367;-73
2022/03/12 03:29:16;;;;;;;10.25;6.03;;;6.40;83.80;;;;;;5011343;28;20041;-73
2022/03/12 03:31:42;;;;;;;12.82;6.07;;;6.30;84.20;;;;;;5009565;28;20092;-73
2022/03/12 03:34:07;;;;;;;14.80;6.50;;;6.30;84.20;;;;;;5023438;28;20045;-73
2022/03/12 03:36:34;;;;;;;13.52;5.90;;;6.30;84.80;;;;;;5010086;28;20579;-73
2022/03/12 03:38:59;;;;;;;10.65;5.97;;;6.30;84.90;;;;;;5002387;28;20030;-72
2022/03/12 03:41:25;;;;;;;9.60;6.20;;;6.50;85.90;;;;;;5011162;28;20049;-75
2022/03/12 03:43:52;;;;;;;10.03;6.33;;;6.30;85.80;;;;;;4988800;28;20351;-74
2022/03/12 03:46:23;;;;;;;11.15;6.65;;;6.40;85.70;;;;;;4991881;28;20288;-74
2022/03/12 03:48:50;;;;;;;7.85;5.78;;;6.20;86.80;;;;;;5004784;28;20045;-74
2022/03/12 03:51:17;;;;;;;9.40;5.68;;;6.30;88.20;;;;;;5012164;28;20495;-74
2022/03/12 03:53:43;;;;;;;10.10;6.18;;;6.20;87.00;;;;;;4986671;28;20073;-74
2022/03/12 03:56:10;;;;;;;9.57;5.85;;;6.20;86.70;;;;;;4995433;28;20072;-74
2022/03/12 03:58:37;;;;;;;;;;;6.30;85.20;;;;;;5016789;28;20053;-74
2022/03/12 04:01:14;;;;;;;11.67;6.63;;;6.30;86.40;;;;;;5011403;28;20007;-74
2022/03/12 04:03:48;;;;;;;8.02;5.68;;;6.20;86.10;;;;;;5006613;28;20285;-74
2022/03/12 04:06:14;;;;;;;10.57;6.28;;;6.20;85.90;;;;;;5012887;28;20048;-75
2022/03/12 04:08:42;;;;;;;;;;;6.20;86.30;;;;;;5014497;28;20527;-74
2022/03/12 04:11:12;;;;;;;9.93;6.07;;;6.40;86.30;;;;;;5014381;28;19967;-74
2022/03/12 04:13:38;;;;;;;9.27;6.38;;;6.10;87.10;;;;;;4987620;28;20050;-74
2022/03/12 04:16:05;;;;;;;9.98;6.13;;;6.10;87.00;;;;;;5012446;28;20041;-74
2022/03/12 04:18:31;;;;;;;9.48;5.95;;;6.10;86.50;;;;;;5010843;28;20038;-74
2022/03/12 04:20:57;;;;;;;11.63;6.43;;;6.50;86.90;;;;;;5008935;28;20041;-74
2022/03/12 04:23:25;;;;;;;10.43;6.25;;;6.00;87.40;;;;;;5012588;28;20042;-74
2022/03/12 04:25:53;;;;;;;13.02;6.47;;;6.00;87.40;;;;;;5019963;28;20053;-74
2022/03/12 04:28:22;;;;;;;12.95;6.22;;;5.90;87.80;;;;;;5007634;28;20037;-74
2022/03/12 04:30:48;;;;;;;11.27;6.13;;;5.90;87.40;;;;;;4993224;28;20065;-74
2022/03/12 04:33:14;;;;;;;;;;;6.10;87.60;;;;;;5007650;28;20052;-74
2022/03/12 04:35:42;;;;;;;9.35;6.20;;;5.90;87.90;;;;;;4991267;28;20324;-74
2022/03/12 04:38:09;;;;;;;9.50;6.03;;;5.90;88.00;;;;;;5010017;28;20037;-74
2022/03/12 04:40:39;;;;;;;8.18;5.88;;;6.10;88.60;;;;;;5005891;28;20049;-74
2022/03/12 04:43:06;;;;;;;8.60;5.90;;;5.80;88.50;;;;;;4998699;28;20060;-73
2022/03/12 04:45:32;;;;;;;8.88;5.80;;;5.80;88.60;;;;;;5009754;28;20045;-74
2022/03/12 04:47:58;;;;;;;9.77;6.25;;;5.80;89.10;;;;;;5010610;28;20114;-73
2022/03/12 04:50:24;;;;;;;9.97;6.57;;;5.80;89.50;;;;;;5000990;28;20060;-73
2022/03/12 04:52:52;;;;;;;10.15;5.75;;;6.00;90.00;;;;;;5009714;28;20115;-73
2022/03/12 04:55:21;;;;;;;10.65;6.38;;;5.70;89.80;;;;;;5008290;28;20095;-73
2022/03/12 04:57:48;;;;;;;8.65;5.70;;;5.70;89.80;;;;;;5009020;28;20494;-73
2022/03/12 05:00:17;;;;;;;;;;;5.70;89.70;;;;;;5007569;28;20050;-74
2022/03/12 05:02:46;;;;;;;10.85;5.90;;;5.80;89.60;;;;;;5008426;28;19918;-74
2022/03/12 05:05:14;;;;;;;10.90;6.18;;;5.80;89.00;;;;;;5010200;28;20047;-74
2022/03/12 05:07:48;;;;;;;10.00;6.07;;;5.70;89.30;;;;;;4988118;28;20038;-74
2022/03/12 05:10:17;;;;;;;10.38;5.93;;;6.00;89.20;;;;;;4993247;28;20048;-73
2022/03/12 05:12:43;;;;;;;10.15;6.10;;;5.80;89.30;;;;;;5008753;28;20052;-74
2022/03/12 05:15:11;;;;;;;;;;;5.80;88.90;;;;;;5005113;28;20046;-73
2022/03/12 05:17:47;;;;;;;;;;;5.80;89.00;;;;;;5013233;28;20384;-73
2022/03/12 05:20:21;;;;;;;8.80;5.78;;;5.80;88.90;;;;;;5008094;28;20108;-73
2022/03/12 05:22:48;;;;;;;12.60;6.57;;;5.80;88.60;;;;;;5002337;28;20045;-73
2022/03/12 05:25:16;;;;;;;9.40;6.22;;;5.80;88.70;;;;;;5006013;28;20049;-73
2022/03/12 05:27:42;;;;;;;13.95;5.95;;;5.80;88.30;;;;;;5008102;28;20120;-73
2022/03/12 05:30:08;;;;;;;10.65;5.82;;;5.80;88.10;;;;;;4990576;28;20124;-74
2022/03/12 05:32:34;;;;;;;8.82;6.00;;;5.80;88.00;;;;;;4990491;28;20054;-74
2022/03/12 05:34:59;;;;;;;9.83;5.53;;;5.80;88.00;;;;;;5010351;28;20092;-74
2022/03/12 05:37:25;;;;;;;11.60;6.40;;;5.90;88.10;;;;;;5015468;28;20112;-74
2022/03/12 05:39:51;;;;;;;9.70;5.47;;;6.00;88.20;;;;;;5015206;28;20044;-73
2022/03/12 05:42:20;;;;;;;10.80;5.55;;;5.80;88.10;;;;;;5007870;28;20124;-73
2022/03/12 05:44:46;;;;;;;8.80;5.68;;;5.70;88.40;;;;;;5009322;28;20042;-74
2022/03/12 05:47:11;;;;;;;10.90;5.95;;;5.70;88.10;;;;;;4991272;28;20034;-74
2022/03/12 05:49:37;;;;;;;9.32;5.80;;;5.90;87.70;;;;;;4996048;28;20042;-74
2022/03/12 05:52:04;;;;;;;8.45;5.43;;;5.80;87.80;;;;;;5011536;28;20049;-74
2022/03/12 05:54:29;;;;;;;8.18;5.60;;;5.80;88.10;;;;;;5009566;28;20386;-73
2022/03/12 05:56:56;;;;;;;9.70;6.17;;;5.80;89.00;;;;;;5012411;28;20041;-73
2022/03/12 05:59:22;;;;;;;11.80;6.00;;;5.80;89.50;;;;;;5006614;28;20120;-73
2022/03/12 06:01:50;;;;;;;10.23;5.60;;;6.10;89.30;;;;;;5012899;28;20049;-74
2022/03/12 06:04:25;;;;;;;8.85;5.03;;;6.30;89.50;;;;;;5014167;28;20389;-74
2022/03/12 06:06:53;;;;;;;9.35;5.78;;;5.80;90.00;;;;;;5009202;28;20116;-73
2022/03/12 06:09:18;;;;;;;10.73;5.93;;;5.90;90.50;;;;;;5017648;28;20056;-74
2022/03/12 06:11:45;;;;;;;10.20;5.60;;;5.70;90.60;;;;;;5015175;28;20045;-73
2022/03/12 06:14:16;;;;;;;8.90;5.72;;;5.70;90.80;;;;;;5012660;28;20038;-74
2022/03/12 06:16:48;;;;;;;9.68;5.60;;;5.70;90.80;;;;;;5014328;28;20045;-74
2022/03/12 06:19:16;;;;;;;11.00;6.00;;;6.00;90.80;;;;;;5015748;28;20039;-73
2022/03/12 06:21:42;;;;;;;8.35;5.82;;;6.20;90.90;;;;;;5005690;28;20076;-74
2022/03/12 06:24:08;;;;;;;11.77;6.20;;;5.60;90.70;;;;;;5017289;28;20121;-74
2022/03/12 06:26:36;;;;;;;9.13;5.57;;;5.80;90.40;;;;;;5010508;28;20517;-74
2022/03/12 06:29:12;;;;;;;8.93;5.35;;;5.70;90.40;;;;;;5015662;28;20053;-74
2022/03/12 06:31:39;;;;;;;7.63;5.20;;;5.70;89.50;;;;;;5014708;28;20120;-74
2022/03/12 06:34:05;;;;;;;9.55;5.80;;;5.80;89.00;;;;;;4995862;28;20050;-74
2022/03/12 06:36:31;;;;;;;8.55;5.60;;;6.00;89.70;;;;;;5008748;28;20042;-74
2022/03/12 06:38:57;;;;;;;8.90;5.27;;;5.90;89.20;;;;;;5012561;28;20112;-73
2022/03/12 06:41:23;;;;;;;8.52;5.47;;;5.80;88.50;;;;;;4999623;28;20292;-73
2022/03/12 06:43:53;;;;;;;9.65;5.93;;;5.80;87.80;;;;;;5013314;28;20045;-74
2022/03/12 06:46:21;;;;;;;9.93;5.68;;;5.80;88.40;;;;;;5013917;28;20050;-74
2022/03/12 06:48:46;;;;;;;10.80;5.15;;;6.00;88.80;;;;;;5017274;28;20046;-74
2022/03/12 06:51:13;;;;;;;7.87;5.40;;;5.90;89.00;;;;;;4981872;28;20045;-74
2022/03/12 06:53:39;;;;;;;12.30;5.88;;;6.00;88.80;;;;;;5011696;28;20053;-74
2022/03/12 06:56:07;;;;;;;10.52;5.53;;;6.20;88.50;;;;;;5029209;28;20041;-73
2022/03/12 06:58:32;;;;;;;9.02;5.22;;;5.90;87.80;;;;;;5008054;28;20049;-73
2022/03/12 07:00:58;;;;;;;10.98;5.38;;;5.90;88.50;;;;;;5017107;28;20041;-72
2022/03/12 07:03:24;;;;;;;7.32;4.90;;;6.00;88.00;;;;;;5012435;28;20363;-74
2022/03/12 07:05:51;;;;;;;8.80;5.70;;;6.00;88.20;;;;;;5012660;28;20409;-73
2022/03/12 07:08:19;;;;;;;10.57;5.78;;;6.00;89.20;;;;;;4985824;28;20052;-73
2022/03/12 07:10:46;;;;;;;8.27;5.55;;;6.00;88.90;;;;;;5012376;28;20048;-74
2022/03/12 07:13:12;;;;;;;9.43;5.60;;;6.10;88.60;;;;;;5009753;28;20128;-74
2022/03/12 07:15:38;;;;;;;9.27;5.95;;;6.10;88.40;;;;;;5011812;28;20175;-74
2022/03/12 07:18:04;;;;;;;9.40;5.38;;;6.20;88.30;;;;;;4988434;28;20115;-73
2022/03/12 07:20:30;;;;;;;11.15;5.85;;;6.40;88.10;;;;;;4988569;28;20033;-73
2022/03/12 07:22:56;;;;;;;8.52;5.90;;;6.30;88.20;;;;;;4985492;28;20482;-74
2022/03/12 07:25:24;;;;;;;10.68;5.63;;;6.30;87.60;;;;;;5012593;28;20041;-77
2022/03/12 07:27:52;;;;;;;9.45;6.15;;;6.40;88.40;;;;;;5016169;28;20056;-77
2022/03/12 07:30:18;;;;;;;8.05;5.40;;;6.50;88.70;;;;;;5017050;28;20045;-77
2022/03/12 07:32:45;;;;;;;10.48;5.82;;;6.50;88.40;;;;;;5006784;28;20048;-76
2022/03/12 07:35:12;;;;;;;8.43;5.45;;;6.40;88.90;;;;;;4995191;28;20581;-77
2022/03/12 07:37:38;;;;;;;10.50;5.93;;;6.50;89.30;;;;;;5005763;28;20129;-77
2022/03/12 07:40:05;;;;;;;9.38;5.13;;;6.50;90.20;;;;;;4998294;28;20033;-76
2022/03/12 07:42:30;;;;;;;;;;;6.70;90.00;;;;;;4992019;28;20505;-75
2022/03/12 07:44:56;;;;;;;12.80;5.93;;;6.90;88.40;;;;;;5004891;28;19917;-76
2022/03/12 07:47:22;;;;;;;10.20;5.85;;;7.10;87.90;;;;;;4996465;28;20041;-75
2022/03/12 07:49:48;;;;;;;9.40;6.13;;;7.30;87.70;;;;;;5011772;28;20037;-75
2022/03/12 07:52:14;;;;;;;9.38;5.65;;;7.80;86.60;;;;;;5003233;28;20288;-76
2022/03/12 07:54:39;;;;;;;13.70;5.70;;;8.50;83.80;;;;;;5011076;28;20104;-75
2022/03/12 07:57:05;;;;;;;10.37;5.57;;;9.00;79.60;;;;;;5007985;28;20072;-75
2022/03/12 07:59:31;;;;;;;8.75;5.85;;;9.70;77.40;;;;;;5005770;28;20053;-76
2022/03/12 08:01:58;;;;;;;8.25;5.60;;;10.30;75.70;;;;;;5011401;28;20112;-76
2022/03/12 08:04:26;;;;;;;13.18;6.18;;;10.70;72.40;;;;;;4997826;28;20388;-75
2022/03/12 08:06:52;;;;;;;9.05;6.00;;;10.90;71.70;;;;;;5014028;28;20087;-75
2022/03/12 08:09:17;;;;;;;8.52;5.65;;;11.00;71.20;;;;;;5017096;28;20033;-75
2022/03/12 08:11:43;;;;;;;14.40;6.30;;;11.40;70.80;;;;;;5023084;28;20116;-75
2022/03/12 08:14:14;;;;;;;9.82;5.78;;;11.80;69.40;;;;;;4999733;28;20091;-74
2022/03/12 08:16:40;;;;;;;8.32;6.00;;;12.30;69.10;;;;;;5026677;28;20119;-75
2022/03/12 08:19:07;;;;;;;7.95;5.90;;;12.10;68.50;;;;;;5011999;28;20041;-75
2022/03/12 08:21:34;;;;;;;9.48;6.10;;;12.20;69.30;;;;;;5019370;28;20507;-74
2022/03/12 08:24:02;;;;;;;9.90;6.22;;;12.20;69.40;;;;;;4990718;28;20038;-75
2022/03/12 08:26:28;;;;;;;10.10;6.55;;;12.70;69.20;;;;;;5010811;28;20048;-79
2022/03/12 08:28:54;;;;;;;;;;;12.80;68.20;;;;;;5013804;28;20378;-75
2022/03/12 08:31:19;;;;;;;9.93;6.13;;;12.70;67.90;;;;;;5014013;28;19924;-78
2022/03/12 08:33:45;;;;;;;10.98;6.55;;;12.60;68.20;;;;;;5006235;28;20050;-76
2022/03/12 08:36:13;;;;;;;10.25;5.97;;;12.70;68.30;;;;;;5004694;28;20470;-77
2022/03/12 08:38:39;;;;;;;10.93;6.10;;;12.90;68.50;;;;;;5014498;28;20037;-77
2022/03/12 08:41:06;;;;;;;9.90;6.05;;;12.80;68.20;;;;;;5008429;28;20064;-76
2022/03/12 08:43:34;;;;;;;10.25;6.72;;;13.10;68.10;;;;;;5011157;28;20037;-76
2022/03/12 08:46:01;;;;;;;8.93;5.93;;;13.20;68.90;;;;;;5006013;28;20057;-76
2022/03/12 08:48:27;;;;;;;11.27;6.75;;;13.50;67.80;;;;;;5010379;28;20071;-76
2022/03/12 08:50:53;;;;;;;11.50;6.18;;;13.80;67.80;;;;;;5028762;28;20038;-76
2022/03/12 08:53:21;;;;;;;10.40;6.20;;;14.10;67.30;;;;;;5014574;28;20064;-76
2022/03/12 08:55:47;;;;;;;10.63;6.43;;;14.10;67.60;;;;;;5008670;28;20041;-76
2022/03/12 08:58:13;;;;;;;;;;;14.10;67.40;;;;;;5006775;28;20064;-76
2022/03/12 09:00:39;;;;;;;11.48;6.95;;;14.00;68.00;;;;;;5005028;28;19916;-78
2022/03/12 09:03:05;;;;;;;12.07;6.18;;;13.90;68.50;;;;;;5007713;28;20044;-79
2022/03/12 09:05:32;;;;;;;8.50;6.22;;;13.90;68.40;;;;;;4997567;28;20048;-79
2022/03/12 09:07:57;;;;;;;;;;;13.90;68.60;;;;;;5012551;28;20044;-79
2022/03/12 09:10:24;;;;;;;11.32;6.13;;;14.00;68.60;;;;;;5016869;28;19917;-80
2022/03/12 09:12:50;;;;;;;11.57;6.85;;;14.20;68.80;;;;;;5008212;28;20042;-80
2022/03/12 09:15:20;;;;;;;13.15;7.10;;;14.30;68.30;;;;;;4998852;28;20052;-81
2022/03/12 09:17:46;;;;;;;9.88;6.38;;;14.20;68.60;;;;;;4986018;28;20037;-79
2022/03/12 09:20:12;;;;;;;10.50;6.35;;;14.30;68.70;;;;;;5006817;28;20038;-78
2022/03/12 09:22:39;;;;;;;12.82;6.22;;;14.40;68.90;;;;;;5012710;28;20040;-79
2022/03/12 09:25:09;;;;;;;11.95;6.80;;;14.70;68.90;;;;;;5012063;28;20486;-78
2022/03/12 09:27:35;;;;;;;13.98;6.75;;;15.00;69.20;;;;;;5006868;28;20100;-77
2022/03/12 09:30:01;;;;;;;11.82;6.38;;;15.60;68.90;;;;;;5010087;28;20453;-79
2022/03/12 09:32:27;;;;;;;12.65;6.82;;;15.60;69.20;;;;;;5008177;28;20397;-80
2022/03/12 09:34:53;;;;;;;8.85;6.00;;;15.90;68.70;;;;;;5014009;28;20042;-80
2022/03/12 09:37:19;;;;;;;11.63;6.78;;;16.00;68.80;;;;;;5011801;28;20044;-78
2022/03/12 09:39:45;;;;;;;9.70;6.63;;;16.10;69.10;;;;;;4992712;28;20048;-78
2022/03/12 09:42:11;;;;;;;;;;;16.40;69.00;;;;;;5000166;28;20060;-78
2022/03/12 09:44:37;;;;;;;9.63;6.35;;;16.60;69.00;;;;;;5013478;28;19952;-79
2022/03/12 09:47:03;;;;;;;8.77;6.70;;;16.40;69.50;;;;;;5010784;28;20034;-77
2022/03/12 09:49:28;;;;;;;9.65;6.70;;;16.30;69.40;;;;;;5015410;28;20400;-79
2022/03/12 09:51:57;;;;;;;9.68;6.25;;;16.30;70.30;;;;;;5009262;28;20045;-81
2022/03/12 09:54:23;;;;;;;10.85;6.70;;;16.10;71.00;;;;;;4997006;28;20401;-81
2022/03/12 09:56:49;;;;;;;10.38;6.38;;;16.40;71.20;;;;;;5010088;28;20044;-81
2022/03/12 09:59:14;;;;;;;10.85;6.93;;;16.50;71.50;;;;;;5004864;28;20065;-81
2022/03/12 10:01:40;;;;;;;9.10;6.32;;;16.50;71.30;;;;;;4997033;28;20033;-82
2022/03/12 10:04:06;;;;;;;9.00;6.00;;;16.70;71.20;;;;;;4996681;28;20048;-81
2022/03/12 10:06:32;;;;;;;10.00;6.30;;;16.70;71.70;;;;;;5010063;28;20045;-82
2022/03/12 10:08:58;;;;;;;;;;;16.90;71.10;;;;;;5004914;28;20045;-81
2022/03/12 10:11:24;;;;;;;10.77;7.20;;;16.70;72.00;;;;;;5013986;28;19963;-81
2022/03/12 10:13:50;;;;;;;9.70;6.63;;;16.70;73.10;;;;;;5001252;28;20033;-81
2022/03/12 10:16:18;;;;;;;10.88;7.15;;;16.70;72.90;;;;;;5007195;28;20103;-81
2022/03/12 10:18:45;;;;;;;12.27;6.85;;;16.60;72.60;;;;;;5008599;28;20042;-81
2022/03/12 10:21:11;;;;;;;10.52;7.03;;;16.50;73.20;;;;;;5001864;28;20038;-82
2022/03/12 10:23:37;;;;;;;10.65;6.40;;;16.70;73.40;;;;;;5010969;28;20038;-81
2022/03/12 10:26:03;;;;;;;11.82;7.13;;;16.50;74.30;;;;;;5024714;28;20038;-81
2022/03/12 10:28:34;;;;;;;15.10;7.18;;;16.70;73.80;;;;;;4988675;28;20038;-81
2022/03/12 10:31:05;;;;;;;10.38;6.72;;;16.90;73.70;;;;;;5020713;28;20049;-81
2022/03/12 10:33:31;;;;;;;12.38;7.30;;;16.80;75.00;;;;;;5007934;28;20060;-81
2022/03/12 10:36:12;;;;;;;10.25;7.03;;;16.90;76.00;;;;;;5008613;28;20038;-81
2022/03/12 10:38:42;;;;;;;9.10;6.53;;;17.50;76.00;;;;;;5005776;28;20040;-81
2022/03/12 10:41:11;;;;;;;12.88;7.65;;;17.30;77.10;;;;;;4994032;28;20047;-81
2022/03/12 10:43:50;;;;;;;10.38;6.60;;;17.40;78.10;;;;;;4992079;28;20168;-82
2022/03/12 10:46:27;;;;;;;12.48;6.10;;;17.40;78.00;;;;;;4994723;28;20049;-80
2022/03/12 10:49:02;;;;;;;12.00;7.20;;;17.70;77.40;;;;;;4992460;28;20393;-80
2022/03/12 10:51:35;;;;;;;10.43;6.75;;;17.60;76.80;;;;;;5003695;28;20041;-81
2022/03/12 10:54:04;;;;;;;14.07;7.05;;;17.30;78.40;;;;;;5010823;28;20073;-81
2022/03/12 10:56:51;;;;;;;10.68;6.47;;;17.30;78.80;;;;;;5018818;28;20121;-81
2022/03/12 10:59:23;;;;;;;11.68;6.53;;;17.00;80.80;;;;;;5015333;28;20054;-80
2022/03/12 11:01:53;;;;;;;11.63;7.35;;;17.20;78.90;;;;;;5012274;28;20457;-77
2022/03/12 11:04:26;;;;;;;12.55;7.15;;;17.40;79.00;;;;;;4997096;28;20453;-78
2022/03/12 11:06:55;;;;;;;11.27;6.60;;;17.60;78.70;;;;;;5011658;28;20053;-77
2022/03/12 11:09:35;;;;;;;11.25;6.78;;;17.50;78.80;;;;;;5015256;28;20038;-78
2022/03/12 11:12:05;;;;;;;11.52;6.28;;;17.40;79.70;;;;;;5012035;28;20038;-79
2022/03/12 11:14:31;;;;;;;9.80;6.43;;;17.50;79.10;;;;;;4990632;28;20736;-78
2022/03/12 11:16:58;;;;;;;12.93;6.93;;;17.50;79.10;;;;;;5017587;28;20045;-79
2022/03/12 11:19:42;;;;;;;9.98;7.10;;;17.60;78.80;;;;;;5001966;28;20496;-81
2022/03/12 11:22:13;;;;;;;13.65;7.93;;;17.20;80.70;;;;;;5012977;28;20034;-80
2022/03/12 11:24:57;;;;;;;10.23;7.25;;;17.50;79.70;;;;;;5001577;28;20167;-80
2022/03/12 11:27:34;;;;;;;9.43;6.32;;;17.30;81.60;;;;;;5013608;28;20045;-80
2022/03/12 11:30:04;;;;;;;9.32;6.85;;;17.80;81.10;;;;;;5013885;28;20044;-78
2022/03/12 11:32:34;;;;;;;8.10;5.95;;;17.80;81.40;;;;;;5006460;28;20038;-79
2022/03/12 11:35:11;;;;;;;7.45;5.38;;;18.10;82.20;;;;;;5012033;28;20849;-79
2022/03/12 11:37:41;;;;;;;8.05;5.05;;;17.70;84.60;;;;;;4995656;28;20030;-79
2022/03/12 11:40:18;;;;;;;10.38;5.35;;;17.50;88.50;;;;;;5014673;28;20057;-81
2022/03/12 11:42:44;;;;;;;8.25;5.55;;;17.60;88.10;;;;;;5015604;28;20100;-79
2022/03/12 11:45:15;;;;;;;7.90;5.25;;;17.70;88.10;;;;;;5014711;28;20041;-81
2022/03/12 11:47:43;;;;;;;8.13;4.95;;;17.90;87.60;;;;;;4989986;28;20163;-79
2022/03/12 11:50:13;;;;;;;8.82;5.40;;;18.20;87.50;;;;;;5009608;28;20556;-79
2022/03/12 11:52:41;;;;;;;8.07;4.93;;;18.30;87.30;;;;;;4994246;28;20490;-79
2022/03/12 11:55:15;;;;;;;10.15;5.18;;;18.30;86.60;;;;;;5016700;28;20052;-79
2022/03/12 11:57:41;;;;;;;8.27;4.97;;;18.10;87.00;;;;;;5008469;28;20038;-79
2022/03/12 12:00:18;;;;;;;7.15;4.57;;;18.20;84.90;;;;;;5004635;28;20053;-78
2022/03/12 12:02:44;;;;;;;7.40;4.80;;;17.80;85.90;;;;;;5003068;28;20501;-78
2022/03/12 12:05:12;;;;;;;9.75;5.13;;;17.80;88.20;;;;;;5014096;28;20053;-79
2022/03/12 12:07:39;;;;;;;8.85;4.75;;;17.90;88.10;;;;;;4993040;28;20103;-78
2022/03/12 12:10:08;;;;;;;9.27;5.03;;;18.20;86.50;;;;;;5006179;28;20048;-78
2022/03/12 12:12:34;;;;;;;7.60;4.82;;;18.50;85.30;;;;;;5010519;28;20045;-78
2022/03/12 12:15:02;;;;;;;8.55;4.70;;;18.70;84.70;;;;;;5009904;28;20045;-78
2022/03/12 12:17:29;;;;;;;7.70;4.13;;;19.00;84.20;;;;;;4993849;28;20120;-79
2022/03/12 12:19:55;;;;;;;8.35;4.70;;;19.00;82.80;;;;;;4988806;28;20042;-79
2022/03/12 12:22:21;;;;;;;10.57;4.78;;;19.00;82.40;;;;;;4994773;28;20040;-79
2022/03/12 12:24:52;;;;;;;7.13;4.40;;;19.10;81.80;;;;;;5014653;28;20049;-79
2022/03/12 12:27:19;;;;;;;7.50;4.78;;;18.70;82.60;;;;;;5005143;28;20050;-78
2022/03/12 12:29:48;;;;;;;7.40;4.90;;;18.70;81.40;;;;;;5026618;28;20092;-79
2022/03/12 12:32:18;;;;;;;6.38;3.80;;;18.40;83.90;;;;;;5009763;28;20056;-79
2022/03/12 12:35:02;;;;;;;11.57;4.30;;;18.40;81.40;;;;;;5010100;28;20081;-79
2022/03/12 12:37:53;;;;;;;7.53;4.43;;;17.90;84.70;;;;;;5012603;28;20045;-77
2022/03/12 12:40:43;;;;;;;6.80;4.47;;;17.90;85.50;;;;;;5007012;28;20047;-78
2022/03/12 12:43:13;;;;;;;10.65;4.65;;;17.90;84.20;;;;;;5019982;28;20039;-79
2022/03/12 12:45:53;;;;;;;7.32;4.03;;;17.90;84.70;;;;;;5011325;28;20512;-79
2022/03/12 12:48:45;;;;;;;6.93;4.18;;;18.10;85.10;;;;;;5014583;28;20045;-79
2022/03/12 12:51:17;;;;;;;8.85;4.72;;;18.10;83.60;;;;;;4995533;28;20037;-79
2022/03/12 12:54:02;;;;;;;9.13;4.38;;;17.80;84.20;;;;;;5013843;28;20486;-79
2022/03/12 12:56:33;;;;;;;9.80;4.32;;;17.60;85.70;;;;;;5012550;28;20119;-79
2022/03/12 12:58:58;;;;;;;10.25;4.85;;;17.50;86.30;;;;;;5002406;28;20132;-79